עמוד ראשי
METAR-TAF:

METAR-TAF

שדות תעופה :

קורק, אירלנד

קו רוחב: 51-51N, קו אורך: 008-29W, גובה: 153מטר

תצפית מזג אוויר נוכחית

הדו"ח נערך לפני 21דקות, בשעה 11:00 UTC
רוח 10קשר מכיוון צפון/צפון-מערב
טמפרטורת 18 צלסיוס
לחות 77%
לחץ 1018 hPa
ראות 10 קילומטר או יותר
עננים בינוניים בגובה 1400רגל

METAR: EICK 251100Z 34010KT 9999 BKN014 18/14 Q1018 NOSIG

זמן: 12:21 (11:21 UTC)

תחזית

הדו"ח נערך לפני 4 שעות ו 16דקות, בשעה 07:05 UTC
תחזית בתוקף מ 25 ב 07 UTC עד 26 ב 06 UTC
רוח 9קשר מכיוון צפון/צפון-מערב
ראות 10 קילומטר או יותר
עננים פזורים בגובה 700רגל
עננים בינוניים בגובה 2000רגל
הסתברות 40% :
זמנית מ -
25 ב 07 UTC עד 25 ב 12 UTC
עננים בינוניים בגובה 700רגל

TAF: EICK 250705Z 2507/2606 34009KT 9999 SCT007 BKN020 PROB40 TEMPO 2507/2512 BKN007

תצפיות ותחזיות מזג אוויר לגבי יותר מ- 4,000 שדות תעופה ברחבי העולם. דוחות METAR ו- TAF.

התחנות הזמינות מסומנות בנקודות צהובות ואדומות על גבי המפה.

העבר את העכבר לנקודה הצבעונית על מנת לראות את שם התחנה.

לאחר מכן, לחץ כדי לראות את תוכן ואת תחזיות מזג האוויר.

כדי לשנות את המפה: לחץ על הכפתורים הירוקים עם הפלוס השחור כדי להתקרב; על הכפתור הירוק עם המקף כדי להתרחק; או בחיצים הירוקים למפות סמוכות.


METAR-TAF: